Aeroporto :
LOGIN :

Iscrizione | Disclaimer

   EN    FR    IT 

 










Sommario :    VFR   VFR Marginale   IFR   IFR Intensivo   IFR Molto Intensivo
Visibilità : 
Base nubi : 
>= 8 km
>= 3000ft
5 / 8 km
1000 / 3000 ft
1500m / 5 km
500 / 1000 ft
800 / 1500m
200 / 500 ft
< 800m
< 200 ft
Simboli :   Temporali  Nebbia  Neve Forte  Precipitazioni Forti  Vento > 20 kt
SIGMETs :   Varie  Temporali  Ghiacco  Turbolenza  Onda orograficha  Ceneri Vulcaniche






- Altitudine del aeroporto : 1742 ft
- Codice IATA : SOF


LBSF - Sofia Int.

ULTIMO METAR :
  • 210330Z 28007KT 9999 OVC030 02/M00 Q1021 R99/29//95 NOSIG

METARs OBSOLETI :
  • 210300Z 29006KT 9999 FEW031 BKN035 OVC042 02/M00 Q1021 R99/29//95 NOSIG
  • 210230Z 28005KT 9999 OVC040 02/00 Q1020 R99/29//95 NOSIG
  • 210200Z 28005KT 9999 FEW028 BKN033 OVC042 02/M00 Q1020 R99/29//95 NOSIG
  • 210130Z 28006KT 9999 SCT031 OVC038 02/00 Q1020 R99/29//95 NOSIG
  • 210100Z 27008KT 9999 FEW023 SCT030 OVC039 02/00 Q1020 R99/29//95 NOSIG

TAF TAF LBSF
Valido dal 21 a 00 ore il 22 a 00 ore UTC


202300Z 2100/2124 28010KT 9999 SCT010 BKN025 OVC040
PROB40
TEMPO 2100/2104 4000 SN BKN007 OVC020



MetMap, La meteo Aeronautica in un colpo d'occhio ! - Copyright ORBIFLY Dicembre 2007 - Disclaimer

ORBIFLY MET'MAP TEAM :

Programmazione e sviluppo : Alexandra Zaïnal
Concezione : Baudouin d'Aumeries
Aiuto per la programmazione : Marc-Olivier Méhu
Supporto tecnico e logistico : Manuel Goepfert
Aiuto per la traduzione : Arnaldo La Scala

Contatto : metmap@orbifly.com




FONTI E CREDITI :

   NOAA